Time;durP1;ratioP1;P1;durP2;ratioP2;P2;SDS_P1;SDS_P2;PMS_P1;PMS_P2;Temp;Humidity;BMP_temperature;BMP_pressure;BME280_temperature;BME280_humidity;BME280_pressure;Samples;Min_cycle;Max_cycle;Signal;HPM_P1;HPM_P2
2023/12/03 00:01:03;;;;;;;27.58;14.57;;;;;;;1.47;100.00;101828.78;6276623;22;20330;-84
2023/12/03 00:03:33;;;;;;;32.97;15.68;;;;;;;1.42;100.00;101826.72;6249513;22;20008;-84
2023/12/03 00:05:59;;;;;;;31.17;15.10;;;;;;;0.96;100.00;101748.28;6249569;22;20012;-84
2023/12/03 00:08:24;;;;;;;32.08;15.93;;;;;;;0.95;100.00;101739.59;6274976;22;20008;-84
2023/12/03 00:10:51;;;;;;;30.20;15.40;;;;;;;1.19;100.00;101774.06;6249319;22;20170;-84
2023/12/03 00:13:19;;;;;;;31.95;16.33;;;;;;;1.13;100.00;101764.97;6275507;22;20015;-84
2023/12/03 00:15:49;;;;;;;32.85;17.15;;;;;;;1.28;100.00;101806.69;6274801;22;20008;-84
2023/12/03 00:18:17;;;;;;;29.60;15.68;;;;;;;0.91;100.00;101742.78;6275464;22;20307;-84
2023/12/03 00:20:45;;;;;;;28.05;15.18;;;;;;;1.27;100.00;101802.28;6277028;22;20008;-84
2023/12/03 00:23:13;;;;;;;31.70;15.73;;;;;;;0.90;100.00;101738.41;6249073;22;20368;-85
2023/12/03 00:25:39;;;;;;;31.23;14.88;;;;;;;1.26;100.00;101806.59;6276670;22;19999;-84
2023/12/03 00:28:09;;;;;;;31.08;15.68;;;;;;;0.87;100.00;101737.31;6277144;22;20388;-84
2023/12/03 00:30:35;;;;;;;29.08;15.20;;;;;;;0.88;100.00;101753.00;6252674;22;20038;-84
2023/12/03 00:33:03;;;;;;;29.83;13.98;;;;;;;1.08;100.00;101787.22;6251509;22;20482;-83
2023/12/03 00:35:33;;;;;;;33.10;15.82;;;;;;;1.21;100.00;101795.91;6252196;22;20360;-84
2023/12/03 00:37:59;;;;;;;28.00;14.50;;;;;;;0.94;100.00;101737.78;6278986;22;20003;-84
2023/12/03 00:40:29;;;;;;;30.98;15.18;;;;;;;1.29;100.00;101795.50;6250922;22;20094;-84
2023/12/03 00:42:57;;;;;;;29.50;15.02;;;;;;;1.31;100.00;101794.75;6252359;22;20030;-84
2023/12/03 00:45:22;;;;;;;32.08;15.27;;;;;;;1.08;100.00;101745.56;6251832;22;20011;-85
2023/12/03 00:47:55;;;;;;;29.65;14.75;;;;;;;1.30;100.00;101779.06;6278245;22;20033;-85
2023/12/03 00:50:28;;;;;;;30.13;15.07;;;;;;;1.28;100.00;101765.94;6278641;22;20078;-84
2023/12/03 00:53:11;;;;;;;30.13;14.95;;;;;;;1.20;100.00;101749.84;6251387;22;20050;-84
2023/12/03 00:55:41;;;;;;;22.77;12.93;;;;;;;1.55;100.00;101792.81;6255559;22;20174;-85
2023/12/03 00:58:07;;;;;;;29.50;14.82;;;;;;;1.45;100.00;101774.78;6252576;22;20012;-84
2023/12/03 01:00:50;;;;;;;25.75;14.10;;;;;;;1.25;100.00;101732.81;6276820;22;20035;-84
2023/12/03 01:03:26;;;;;;;26.25;13.20;;;;;;;1.55;100.00;101781.50;6228241;22;20008;-84
2023/12/03 01:05:52;;;;;;;28.23;14.95;;;;;;;1.69;100.00;101804.97;6251241;22;20102;-85
2023/12/03 01:08:20;;;;;;;24.50;12.68;;;;;;;1.88;100.00;101834.75;6250890;22;20101;-84
2023/12/03 01:10:48;;;;;;;25.13;12.60;;;;;;;1.55;100.00;101784.09;6277869;22;20003;-84
2023/12/03 01:13:13;;;;;;;23.80;12.30;;;;;;;1.47;100.00;101765.38;6276102;22;20011;-84
2023/12/03 01:15:41;;;;;;;29.38;15.02;;;;;;;1.39;100.00;101751.88;6278185;22;20406;-84
2023/12/03 01:18:09;;;;;;;26.02;14.65;;;;;;;1.52;100.00;101776.97;6251018;22;20008;-84
2023/12/03 01:20:34;;;;;;;25.02;14.18;;;;;;;1.75;100.00;101813.16;6251632;22;20058;-84
2023/12/03 01:23:02;;;;;;;27.95;14.65;;;;;;;1.47;100.00;101766.28;6278100;22;20012;-84
2023/12/03 01:25:36;;;;;;;28.00;15.82;;;;;;;1.46;100.00;101774.91;6277860;22;20004;-84
2023/12/03 01:28:01;;;;;;;24.95;13.90;;;;;;;1.72;100.00;101823.41;6251873;22;20012;-84
2023/12/03 01:30:29;;;;;;;27.45;14.25;;;;;;;1.40;100.00;101777.13;6251063;22;20330;-84
2023/12/03 01:32:57;;;;;;;26.88;15.02;;;;;;;1.67;100.00;101829.13;6276515;22;20111;-83
2023/12/03 01:35:22;;;;;;;27.65;14.50;;;;;;;1.68;100.00;101829.22;6275569;22;20004;-83
2023/12/03 01:37:48;;;;;;;28.35;15.18;;;;;;;1.32;100.00;101782.66;6277150;22;20023;-84
2023/12/03 01:40:16;;;;;;;28.02;14.93;;;;;;;1.42;100.00;101798.06;6250763;22;20381;-84
2023/12/03 01:42:41;;;;;;;29.15;14.98;;;;;;;1.54;100.00;101831.75;6277715;22;20027;-83
2023/12/03 01:45:17;;;;;;;28.55;15.60;;;;;;;1.60;100.00;101859.13;6275973;22;20394;-83
2023/12/03 01:47:45;;;;;;;27.85;15.38;;;;;;;1.27;100.00;101816.19;6250604;22;20058;-84
2023/12/03 01:50:14;;;;;;;26.63;14.57;;;;;;;1.33;100.00;101834.84;6276158;22;20010;-83
2023/12/03 01:52:43;;;;;;;29.23;15.88;;;;;;;1.31;100.00;101827.72;6250706;22;20046;-84
2023/12/03 01:55:12;;;;;;;28.65;15.70;;;;;;;1.25;100.00;101828.25;6277526;22;20006;-84
2023/12/03 01:57:38;;;;;;;30.50;15.70;;;;;;;1.19;100.00;101825.22;6251559;22;20081;-84
2023/12/03 02:00:08;;;;;;;34.05;17.05;;;;;;;1.10;100.00;101809.91;6277468;22;20008;-84
2023/12/03 02:02:35;;;;;;;29.00;15.23;;;;;;;1.17;100.00;101825.13;6278058;22;20090;-84
2023/12/03 02:05:06;;;;;;;28.67;14.18;;;;;;;0.98;100.00;101793.50;6278094;22;20411;-84
2023/12/03 02:07:36;;;;;;;30.10;15.18;;;;;;;0.95;100.00;101782.94;6251138;22;20057;-84
2023/12/03 02:10:04;;;;;;;30.35;15.25;;;;;;;0.97;100.00;101787.41;6251495;22;20038;-84
2023/12/03 02:12:32;;;;;;;30.38;15.50;;;;;;;1.12;100.00;101805.72;6278329;22;20011;-84
2023/12/03 02:14:58;;;;;;;29.27;15.00;;;;;;;1.39;100.00;101847.34;6251118;22;20012;-84
2023/12/03 02:17:24;;;;;;;31.88;15.80;;;;;;;1.05;100.00;101787.91;6277600;22;20067;-84
2023/12/03 02:19:51;;;;;;;32.33;16.48;;;;;;;1.19;100.00;101809.59;6249861;22;20065;-84
2023/12/03 02:22:17;;;;;;;30.63;15.38;;;;;;;1.08;100.00;101793.31;6277093;22;20016;-84
2023/12/03 02:24:45;;;;;;;32.25;16.55;;;;;;;1.06;100.00;101792.31;6277331;22;20083;-84
2023/12/03 02:27:11;;;;;;;32.10;16.88;;;;;;;1.56;100.00;101877.06;6250917;22;20008;-84
2023/12/03 02:29:36;;;;;;;34.40;16.45;;;;;;;1.58;100.00;101889.34;6250914;22;20030;-84
2023/12/03 02:32:02;;;;;;;37.20;18.33;;;;;;;1.24;100.00;101842.97;6250358;22;20022;-84
2023/12/03 02:34:27;;;;;;;34.22;17.73;;;;;;;1.44;100.00;101878.06;6249817;22;20008;-84
2023/12/03 02:36:52;;;;;;;32.95;17.23;;;;;;;1.45;100.00;101869.44;6249891;22;20039;-84
2023/12/03 02:39:21;;;;;;;37.25;18.50;;;;;;;1.48;100.00;101869.66;6250497;22;20012;-84
2023/12/03 02:41:46;;;;;;;36.28;17.48;;;;;;;1.46;100.00;101858.25;6277072;22;20082;-84
2023/12/03 02:44:16;;;;;;;34.40;16.38;;;;;;;1.28;100.00;101833.63;6225438;22;20086;-84
2023/12/03 02:46:44;;;;;;;30.88;16.02;;;;;;;1.41;100.00;101848.31;6277097;22;20398;-84
2023/12/03 02:49:12;;;;;;;32.00;17.13;;;;;;;1.08;100.00;101797.63;6250386;22;20325;-84
2023/12/03 02:51:40;;;;;;;36.10;16.95;;;;;;;1.37;100.00;101835.91;6250756;22;20069;-84
2023/12/03 02:54:08;;;;;;;31.05;15.70;;;;;;;1.11;100.00;101808.22;6277480;22;20004;-84
2023/12/03 02:56:34;;;;;;;29.23;15.85;;;;;;;1.22;100.00;101834.13;6250446;22;20007;-83
2023/12/03 02:58:59;;;;;;;30.75;15.15;;;;;;;1.07;100.00;101817.56;6276937;22;20018;-84
2023/12/03 03:01:25;;;;;;;31.75;15.90;;;;;;;1.34;100.00;101862.66;6250086;22;20334;-84
2023/12/03 03:03:50;;;;;;;29.73;15.57;;;;;;;1.27;100.00;101849.16;6250062;22;20004;-84
2023/12/03 03:06:27;;;;;;;30.73;15.95;;;;;;;1.51;100.00;101879.38;6277201;22;20004;-84
2023/12/03 03:08:55;;;;;;;32.13;15.88;;;;;;;1.13;100.00;101798.81;6226608;22;20012;-84
2023/12/03 03:11:20;;;;;;;30.38;14.73;;;;;;;1.45;100.00;101850.31;6277872;22;20015;-84
2023/12/03 03:13:46;;;;;;;35.38;16.70;;;;;;;1.13;100.00;101804.91;6277821;22;20000;-84
2023/12/03 03:16:11;;;;;;;33.33;16.42;;;;;;;1.54;100.00;101886.47;6277687;22;20006;-84
2023/12/03 03:18:36;;;;;;;30.88;14.85;;;;;;;1.05;100.00;101800.91;6249780;22;20016;-84
2023/12/03 03:21:05;;;;;;;28.20;14.60;;;;;;;1.47;100.00;101864.34;6250018;22;20385;-84
2023/12/03 03:23:33;;;;;;;31.05;15.10;;;;;;;1.56;100.00;101885.78;6249725;22;20007;-84
2023/12/03 03:26:00;;;;;;;31.17;15.93;;;;;;;1.28;100.00;101841.44;6276708;22;20083;-84
2023/12/03 03:28:29;;;;;;;33.88;16.35;;;;;;;1.39;100.00;101869.06;6250074;22;20012;-84
2023/12/03 03:30:55;;;;;;;33.38;17.13;;;;;;;1.35;100.00;101873.97;6250020;22;20015;-84
2023/12/03 03:33:26;;;;;;;28.85;15.45;;;;;;;1.42;100.00;101892.72;6250099;22;20007;-84
2023/12/03 03:35:51;;;;;;;30.60;15.82;;;;;;;1.22;100.00;101860.16;6250498;22;20007;-84
2023/12/03 03:38:17;;;;;;;34.05;16.35;;;;;;;0.78;100.00;101796.53;6249854;22;20327;-84
2023/12/03 03:40:45;;;;;;;35.55;16.98;;;;;;;1.23;100.00;101885.38;6249156;22;20003;-84
2023/12/03 03:43:17;;;;;;;33.15;16.08;;;;;;;0.65;100.00;101793.13;6275175;22;20059;-84
2023/12/03 03:45:43;;;;;;;34.88;16.77;;;;;;;0.93;100.00;101850.47;6249556;22;20034;-84
2023/12/03 03:48:13;;;;;;;32.85;16.80;;;;;;;0.63;100.00;101812.91;6275791;22;20418;-85
2023/12/03 03:50:41;;;;;;;30.92;16.45;;;;;;;0.46;100.00;101798.81;6276674;22;20364;-84
2023/12/03 03:53:08;;;;;;;30.80;15.57;;;;;;;0.45;100.00;101811.72;6276448;22;20386;-84
2023/12/03 03:55:34;;;;;;;31.42;14.07;;;;;;;0.38;100.00;101799.09;6276454;22;20133;-84
2023/12/03 03:57:59;;;;;;;29.58;15.05;;;;;;;0.46;100.00;101818.69;6249452;22;20043;-84
2023/12/03 04:00:27;;;;;;;36.65;16.75;;;;;;;0.50;100.00;101838.91;6276255;22;20430;-83
2023/12/03 04:03:02;;;;;;;34.67;16.60;;;;;;;0.46;100.00;101845.59;6249432;22;20385;-84
2023/12/03 04:05:30;;;;;;;32.60;16.25;;;;;;;0.27;100.00;101807.88;6226082;22;20038;-85
2023/12/03 04:08:08;;;;;;;29.65;14.77;;;;;;;0.21;100.00;101804.09;6250199;22;20414;-85
2023/12/03 04:10:39;;;;;;;35.58;15.98;;;;;;;0.39;100.00;101843.41;6251338;22;20054;-85
2023/12/03 04:13:05;;;;;;;35.63;15.55;;;;;;;0.42;100.00;101855.69;6224412;22;20041;-85
2023/12/03 04:15:33;;;;;;;30.02;15.48;;;;;;;0.16;100.00;101797.66;6249299;22;20086;-86
2023/12/03 04:18:01;;;;;;;31.65;14.80;;;;;;;0.30;100.00;101826.25;6250249;22;20015;-86
2023/12/03 04:20:26;;;;;;;33.97;16.05;;;;;;;0.13;100.00;101814.72;6276508;22;20008;-85
2023/12/03 04:22:59;;;;;;;30.10;14.85;;;;;;;0.15;100.00;101813.16;6223910;22;20070;-86
2023/12/03 04:25:28;;;;;;;34.15;15.82;;;;;;;0.45;100.00;101876.72;6274721;22;20007;-85
2023/12/03 04:28:13;;;;;;;31.33;15.55;;;;;;;0.32;100.00;101853.28;6275249;22;20007;-85
2023/12/03 04:30:56;;;;;;;;;;;;;;;;;;;;;
2023/12/03 04:33:41;;;;;;;30.00;15.32;;;;;;;0.35;100.00;101875.19;6252648;22;20079;-85
2023/12/03 04:36:12;;;;;;;33.17;15.30;;;;;;;0.56;100.00;101913.81;6251703;22;20015;-85
2023/12/03 04:38:50;;;;;;;;;;;;;;;;;;;;;
2023/12/03 04:41:20;;;;;;;33.00;16.15;;;;;;;0.12;100.00;101850.22;6276993;22;20079;-85
2023/12/03 04:43:53;;;;;;;33.85;16.52;;;;;;;-0.05;100.00;101827.34;6275143;22;20430;-86
2023/12/03 04:46:26;;;;;;;30.40;15.20;;;;;;;0.43;100.00;101920.81;6274571;22;20108;-85
2023/12/03 04:49:07;;;;;;;33.22;15.60;;;;;;;0.15;100.00;101880.72;6274393;22;20009;-85
2023/12/03 04:52:00;;;;;;;34.60;15.60;;;;;;;0.04;100.00;101866.97;6249610;22;20318;-85
2023/12/03 04:54:29;;;;;;;33.25;15.48;;;;;;;-0.13;100.00;101831.13;6248550;22;20014;-85
2023/12/03 04:56:59;;;;;;;33.55;16.08;;;;;;;-0.22;100.00;101825.28;6276886;22;20003;-85
2023/12/03 04:59:25;;;;;;;34.20;15.05;;;;;;;0.29;100.00;101931.94;6277198;22;20087;-85
2023/12/03 05:01:52;;;;;;;35.05;15.45;;;;;;;0.02;100.00;101898.84;6249369;22;20041;-85
2023/12/03 05:04:28;;;;;;;;;;;;;;;;;;;;;
2023/12/03 05:06:54;;;;;;;32.10;15.55;;;;;;;-0.36;100.00;101846.00;6276166;22;20087;-86
2023/12/03 05:09:46;;;;;;;37.00;17.45;;;;;;;0.02;100.00;101920.53;6249156;22;20039;-85
2023/12/03 05:12:21;;;;;;;35.33;17.00;;;;;;;-0.47;100.00;101838.25;6278873;22;20107;-86
2023/12/03 05:15:31;;;;;;;39.22;16.13;;;;;;;-0.50;100.00;101844.13;6276338;22;20011;-86
2023/12/03 05:17:56;;;;;;;41.55;17.67;;;;;;;-0.58;100.00;101845.28;6277224;22;20018;-86
2023/12/03 05:20:28;;;;;;;36.97;16.70;;;;;;;-0.59;100.00;101846.09;6250897;22;20003;-86
2023/12/03 05:23:17;;;;;;;38.03;17.08;;;;;;;-0.62;100.00;101853.63;6227187;22;20046;-85
2023/12/03 05:25:43;;;;;;;33.67;16.02;;;;;;;-0.61;100.00;101871.91;6276477;22;20003;-85
2023/12/03 05:28:25;;;;;;;;;;;;;;;;;;;;;
2023/12/03 05:31:02;;;;;;;42.23;18.20;;;;;;;-0.71;100.00;101856.47;6254658;22;20084;-85
2023/12/03 05:33:32;;;;;;;40.10;19.40;;;;;;;-0.41;100.00;101907.09;6251608;22;20334;-85
2023/12/03 05:36:10;;;;;;;40.53;17.80;;;;;;;-0.79;100.00;101837.75;6226610;22;20086;-86
2023/12/03 05:39:00;;;;;;;43.85;18.90;;;;;;;-0.85;100.00;101844.22;6278340;22;20004;-86
2023/12/03 05:41:44;;;;;;;44.10;18.90;;;;;;;-0.82;100.00;101857.38;6230663;22;20061;-86
2023/12/03 05:44:14;;;;;;;41.63;19.35;;;;;;;-0.63;100.00;101890.78;6251845;22;20011;-85
2023/12/03 05:49:39;;;;;;;36.60;16.10;;;;;;;-0.58;100.00;101916.25;6235025;23;20017;-85
2023/12/03 05:52:43;;;;;;;31.40;15.43;;;;;;;-0.99;100.00;101843.19;6246123;23;20012;-85
2023/12/03 05:55:21;;;;;;;40.08;17.55;;;;;;;-0.62;100.00;101908.16;6244318;23;20335;-85
2023/12/03 05:57:57;;;;;;;39.25;16.95;;;;;;;-0.40;100.00;101950.44;6246818;22;20012;-85
2023/12/03 06:00:30;;;;;;;42.40;17.60;;;;;;;-0.44;100.00;101952.72;6271758;22;20014;-85
2023/12/03 06:03:03;;;;;;;38.75;17.45;;;;;;;-0.84;100.00;101891.00;6246306;23;20015;-85
2023/12/03 06:05:31;;;;;;;35.75;16.42;;;;;;;-0.75;100.00;101908.94;6245550;23;20018;-85
2023/12/03 06:08:16;;;;;;;37.47;16.52;;;;;;;-1.11;100.00;101851.00;6246847;22;20426;-85
2023/12/03 06:10:46;;;;;;;38.60;17.70;;;;;;;-1.09;100.00;101852.00;6250704;22;20008;-84
2023/12/03 06:13:17;;;;;;;40.95;16.10;;;;;;;-1.08;100.00;101865.84;6221612;23;20012;-85
2023/12/03 06:15:54;;;;;;;40.00;16.48;;;;;;;-0.83;100.00;101921.34;6247119;22;20083;-85
2023/12/03 06:18:26;;;;;;;37.35;16.65;;;;;;;-1.15;100.00;101869.72;6221347;22;20016;-85
2023/12/03 06:20:58;;;;;;;37.90;16.25;;;;;;;-1.24;100.00;101861.25;6245715;23;20331;-85
2023/12/03 06:23:29;;;;;;;35.40;15.50;;;;;;;-0.80;100.00;101937.16;6246172;22;20008;-86
2023/12/03 06:25:56;;;;;;;37.35;14.88;;;;;;;-1.17;100.00;101878.16;6245983;23;20008;-85
2023/12/03 06:28:29;;;;;;;33.63;15.57;;;;;;;-1.09;100.00;101890.00;6245825;23;20016;-85
2023/12/03 06:30:54;;;;;;;36.95;16.10;;;;;;;-1.19;100.00;101879.75;6247198;22;20011;-85
2023/12/03 06:33:46;;;;;;;41.15;17.83;;;;;;;-1.17;100.00;101894.59;6245407;23;20078;-85
2023/12/03 06:36:39;;;;;;;33.90;15.73;;;;;;;-1.16;100.00;101883.44;6246344;23;20369;-86
2023/12/03 06:39:30;;;;;;;34.65;15.48;;;;;;;-1.07;100.00;101896.19;6246418;23;20039;-85
2023/12/03 06:42:10;;;;;;;;;;;;;;;;;;;;;
2023/12/03 06:45:06;;;;;;;39.15;15.27;;;;;;;-0.95;100.00;101904.88;6245925;23;20356;-85
2023/12/03 06:47:36;;;;;;;38.78;17.98;;;;;;;-0.63;100.00;101960.84;6270587;22;20020;-85
2023/12/03 06:50:02;;;;;;;37.47;16.45;;;;;;;-1.22;100.00;101859.66;6277841;22;20028;-85
2023/12/03 06:52:33;;;;;;;39.60;15.93;;;;;;;-1.29;100.00;101852.19;6250054;22;20016;-85
2023/12/03 06:55:00;;;;;;;33.97;15.82;;;;;;;-1.04;100.00;101886.94;6250333;22;20011;-85
2023/12/03 06:57:34;;;;;;;36.35;16.77;;;;;;;-1.20;100.00;101867.53;6276047;22;20061;-85
2023/12/03 07:00:09;;;;;;;33.03;14.48;;;;;;;-0.82;100.00;101930.03;6226509;22;20027;-85
2023/12/03 07:02:36;;;;;;;37.22;16.02;;;;;;;-0.82;100.00;101938.72;6276972;22;20057;-85
2023/12/03 07:05:05;;;;;;;35.70;15.13;;;;;;;-1.10;100.00;101885.59;6277404;22;20010;-85
2023/12/03 07:07:54;;;;;;;40.78;16.00;;;;;;;-1.18;100.00;101873.75;6276792;22;20464;-85
2023/12/03 07:10:32;;;;;;;35.88;15.77;;;;;;;-1.07;100.00;101896.19;6276769;22;20007;-85
2023/12/03 07:13:00;;;;;;;35.45;15.38;;;;;;;-1.33;100.00;101857.94;6249903;22;20329;-85
2023/12/03 07:15:28;;;;;;;39.88;15.75;;;;;;;-1.15;100.00;101886.97;6249755;22;20330;-85
2023/12/03 07:18:03;;;;;;;;;;;;;;;;;;;;;
2023/12/03 07:20:34;;;;;;;42.97;17.02;;;;;;;-1.30;100.00;101877.22;6277092;22;20083;-84
2023/12/03 07:23:24;;;;;;;36.05;14.68;;;;;;;-1.29;100.00;101863.47;6250862;22;20034;-84
2023/12/03 07:25:59;;;;;;;37.53;15.57;;;;;;;-0.95;100.00;101930.81;6224140;22;20010;-85
2023/12/03 07:28:30;;;;;;;36.90;15.77;;;;;;;-1.28;100.00;101879.97;6226297;22;20012;-84
2023/12/03 07:30:55;;;;;;;33.17;14.80;;;;;;;-0.76;100.00;101978.13;6276109;22;20334;-84
2023/12/03 07:33:21;;;;;;;37.38;16.15;;;;;;;-1.29;100.00;101886.81;6249512;22;20056;-85
2023/12/03 07:35:53;;;;;;;36.60;14.93;;;;;;;-1.35;100.00;101872.50;6276185;22;20014;-85
2023/12/03 07:38:19;;;;;;;36.40;16.00;;;;;;;-1.39;100.00;101870.47;6249652;22;20078;-84
2023/12/03 07:40:59;;;;;;;33.22;14.13;;;;;;;-1.29;100.00;101899.78;6276182;22;20271;-84
2023/12/03 07:43:28;;;;;;;33.90;15.15;;;;;;;-1.29;100.00;101896.28;6276471;22;20011;-84
2023/12/03 07:45:55;;;;;;;34.15;14.63;;;;;;;-0.99;100.00;101951.22;6276478;22;20010;-85
2023/12/03 07:48:21;;;;;;;33.75;15.13;;;;;;;-1.06;100.00;101926.53;6224339;22;20007;-84
2023/12/03 07:50:49;;;;;;;34.88;15.55;;;;;;;-1.00;100.00;101921.78;6276522;22;20401;-85
2023/12/03 07:53:16;;;;;;;29.83;13.15;;;;;;;-0.61;100.00;101978.31;6248890;22;20083;-84
2023/12/03 07:55:47;;;;;;;36.20;16.02;;;;;;;-1.08;100.00;101896.97;6249407;22;20072;-85
2023/12/03 07:58:16;;;;;;;39.05;15.68;;;;;;;-1.07;100.00;101889.34;6249622;22;20150;-84
2023/12/03 08:00:41;;;;;;;36.30;15.25;;;;;;;-0.88;100.00;101899.38;6275472;22;20027;-85
2023/12/03 08:03:18;;;;;;;39.90;16.70;;;;;;;-0.31;100.00;101982.25;6276606;22;20365;-85
2023/12/03 08:05:48;;;;;;;37.20;15.23;;;;;;;-0.44;100.00;101926.75;6249722;22;20012;-85
2023/12/03 08:08:17;;;;;;;37.13;14.88;;;;;;;-0.24;100.00;101947.25;6249266;22;20039;-84
2023/12/03 08:10:45;;;;;;;33.47;14.20;;;;;;;-0.43;100.00;101915.56;6249338;22;20035;-85
2023/12/03 08:13:13;;;;;;;36.03;16.02;;;;;;;-0.04;100.00;101990.25;6248894;22;20007;-85
2023/12/03 08:15:40;;;;;;;33.90;14.88;;;;;;;-0.47;100.00;101930.03;6249102;22;20010;-85
2023/12/03 08:18:11;;;;;;;34.63;15.40;;;;;;;-0.48;100.00;101937.69;6248875;22;20307;-85
2023/12/03 08:20:39;;;;;;;33.83;14.10;;;;;;;-0.48;100.00;101948.06;6249595;22;20023;-84
2023/12/03 08:23:07;;;;;;;33.40;14.35;;;;;;;-0.70;100.00;101928.34;6274585;22;20306;-85
2023/12/03 08:25:34;;;;;;;28.55;13.52;;;;;;;-0.77;100.00;101926.13;6248758;22;20004;-85
2023/12/03 08:28:02;;;;;;;35.20;15.70;;;;;;;-0.78;100.00;101917.41;6249077;22;20077;-85
2023/12/03 08:30:28;;;;;;;34.03;15.00;;;;;;;-0.58;100.00;101920.56;6274537;22;20061;-85
2023/12/03 08:32:58;;;;;;;31.48;15.60;;;;;;;-0.38;100.00;101916.81;6249802;22;20016;-85
2023/12/03 08:35:26;;;;;;;33.10;14.20;;;;;;;0.24;100.00;101975.81;6274892;22;20322;-84
2023/12/03 08:37:53;;;;;;;30.00;14.30;;;;;;;0.22;100.00;101933.22;6276343;22;20089;-84
2023/12/03 08:40:19;;;;;;;31.80;13.55;;;;;;;0.34;99.81;101935.75;6249155;22;20008;-85
2023/12/03 08:42:47;;;;;;;32.75;14.80;;;;;;;0.70;98.55;101988.53;6249170;22;20016;-85
2023/12/03 08:45:30;;;;;;;29.23;14.48;;;;;;;0.71;97.27;101967.81;6250481;22;20023;-84
2023/12/03 08:48:00;;;;;;;31.50;14.40;;;;;;;0.55;95.76;101935.44;6280957;22;20019;-84
2023/12/03 08:50:27;;;;;;;30.50;13.23;;;;;;;0.54;95.66;101918.03;6281305;22;20011;-84
2023/12/03 08:52:57;;;;;;;35.10;16.02;;;;;;;0.70;95.51;101931.28;6276830;22;20008;-84
2023/12/03 08:55:28;;;;;;;29.65;14.43;;;;;;;1.03;94.11;101966.50;6251246;22;20054;-85
2023/12/03 08:57:56;;;;;;;30.65;14.18;;;;;;;0.93;93.54;101938.03;6251087;22;20011;-84
2023/12/03 09:00:34;;;;;;;;;;;;;;;;;;;;;
2023/12/03 09:03:07;;;;;;;29.77;12.85;;;;;;;1.04;92.53;101939.66;6278519;22;20075;-84
2023/12/03 09:05:42;;;;;;;29.88;14.30;;;;;;;1.32;92.58;101994.44;6276447;22;20337;-84
2023/12/03 09:08:07;;;;;;;28.40;13.23;;;;;;;1.43;92.54;101989.97;6251012;22;20004;-84
2023/12/03 09:10:33;;;;;;;32.63;14.32;;;;;;;1.60;92.15;101991.97;6277593;22;20008;-83
2023/12/03 09:13:19;;;;;;;26.90;13.60;;;;;;;1.68;90.42;102001.19;6277033;22;20330;-83
2023/12/03 09:15:56;;;;;;;25.98;12.98;;;;;;;1.76;90.31;102012.13;6278426;22;20057;-83
2023/12/03 09:18:31;;;;;;;27.92;13.38;;;;;;;1.60;89.41;101999.78;6278532;22;20011;-83
2023/12/03 09:21:14;;;;;;;;;;;;;;;;;;;;;
2023/12/03 09:23:45;;;;;;;29.98;13.52;;;;;;;1.81;89.18;102041.06;6253382;22;20143;-86
2023/12/03 09:26:13;;;;;;;27.02;13.05;;;;;;;1.10;88.48;101942.66;6250959;22;20091;-88
2023/12/03 09:28:54;;;;;;;26.60;12.15;;;;;;;1.54;88.95;102035.81;6278694;22;20102;-86
2023/12/03 09:31:19;;;;;;;27.67;14.10;;;;;;;0.95;89.32;101957.28;6253898;22;20004;-86
2023/12/03 09:34:00;;;;;;;26.40;13.00;;;;;;;0.97;89.64;101953.06;6250423;22;20007;-86
2023/12/03 09:36:39;;;;;;;;;;;;;;;;;;;;;
2023/12/03 09:39:35;;;;;;;;;;;;;;;;;;;;;
2023/12/03 09:42:19;;;;;;;27.00;13.18;;;;;;;0.80;89.80;101948.41;6273473;22;20008;-87
2023/12/03 09:45:11;;;;;;;25.40;12.10;;;;;;;1.06;91.16;102002.22;6252601;22;20016;-86
2023/12/03 09:47:37;;;;;;;26.75;12.77;;;;;;;0.69;90.23;101937.31;6269600;22;20091;-83
2023/12/03 09:50:04;;;;;;;28.65;13.23;;;;;;;0.85;89.54;101960.03;6245749;23;20330;-84
2023/12/03 09:52:34;;;;;;;26.52;12.10;;;;;;;1.31;90.32;102025.59;6246689;22;20431;-82
2023/12/03 09:55:01;;;;;;;27.77;11.95;;;;;;;0.89;89.82;101947.31;6246975;22;20004;-83
2023/12/03 09:57:30;;;;;;;23.20;11.18;;;;;;;1.37;89.97;102039.94;6246722;23;20013;-84
2023/12/03 10:00:37;;;;;;;26.65;12.75;;;;;;;0.92;89.36;101960.56;6245033;23;20004;-84
2023/12/03 10:03:36;;;;;;;24.17;12.05;;;;;;;1.12;88.59;101990.53;6246282;23;20327;-87
2023/12/03 10:06:05;;;;;;;28.70;12.68;;;;;;;1.10;89.55;102004.22;6244174;22;20095;-89
2023/12/03 10:11:59;;;;;;;26.95;13.15;;;;;;;0.63;88.72;101916.97;6246997;22;20094;-88
2023/12/03 10:14:28;;;;;;;26.55;13.43;;;;;;;0.92;88.13;101970.97;6248141;22;20084;-86
2023/12/03 10:17:03;;;;;;;;;;;;;;;;;;;;;
2023/12/03 10:19:29;;;;;;;26.83;12.85;;;;;;;0.73;88.24;101929.81;6246985;23;20092;-86
2023/12/03 10:22:03;;;;;;;26.23;13.20;;;;;;;0.69;87.63;101927.78;6246714;22;20360;-87
2023/12/03 10:24:50;;;;;;;25.42;13.63;;;;;;;0.79;88.43;101941.41;6220052;23;20012;-87
2023/12/03 10:27:18;;;;;;;28.45;12.88;;;;;;;0.71;88.09;101922.69;6270968;22;20008;-85
2023/12/03 10:29:48;;;;;;;25.48;12.98;;;;;;;0.65;88.33;101902.38;6270814;22;20004;-86
2023/12/03 10:32:18;;;;;;;22.67;12.18;;;;;;;0.73;88.17;101910.69;6246085;22;20008;-87
2023/12/03 10:35:16;;;;;;;;;;;;;;;;;;;;;
2023/12/03 10:38:26;;;;;;;27.75;12.10;;;;;;;1.20;87.47;101999.75;6244671;23;20087;-89
2023/12/03 10:40:56;;;;;;;20.88;10.73;;;;;;;0.71;87.35;101899.28;6252365;22;20012;-86
2023/12/03 10:43:43;;;;;;;24.95;10.95;;;;;;;0.75;87.62;101896.97;6246599;22;20012;-85
2023/12/03 10:46:48;;;;;;;25.33;10.95;;;;;;;1.15;86.89;101958.59;6274924;22;20011;-86
2023/12/03 10:49:41;;;;;;;24.60;11.25;;;;;;;0.85;86.48;101889.78;6246294;23;20078;-85
2023/12/03 10:52:09;;;;;;;;;;;;;;;1.44;86.99;101978.72;6246012;23;20008;-86
2023/12/03 10:54:44;;;;;;;25.33;10.95;;;;;;;1.16;85.84;101929.16;6244596;23;19907;-87
2023/12/03 10:58:02;;;;;;;20.25;9.82;;;;;;;1.52;85.97;101987.06;6221700;23;20069;-89
2023/12/03 11:00:41;;;;;;;21.08;10.52;;;;;;;1.22;85.60;101922.66;6223800;23;20004;-87
2023/12/03 11:03:41;;;;;;;24.73;11.45;;;;;;;1.24;85.07;101912.31;6244459;23;20070;-87
2023/12/03 11:06:17;;;;;;;23.20;10.90;;;;;;;1.20;85.08;101882.63;6182470;23;20032;-87
2023/12/03 11:08:57;;;;;;;;;;;;;;;;;;;;;
2023/12/03 11:11:33;;;;;;;;;;;;;;;;;;;;;
2023/12/03 11:14:08;;;;;;;18.80;9.75;;;;;;;1.48;82.71;101861.84;6247107;23;20071;-86
2023/12/03 11:16:51;;;;;;;17.75;9.00;;;;;;;1.79;82.77;101865.47;6245812;23;20004;-86
2023/12/03 11:19:23;;;;;;;17.00;8.70;;;;;;;2.12;81.07;101877.09;6244867;23;20012;-86
2023/12/03 11:22:28;;;;;;;19.30;9.93;;;;;;;2.75;80.40;101936.56;6245801;23;20008;-86
2023/12/03 11:25:26;;;;;;;21.38;9.95;;;;;;;2.74;80.41;101891.31;6244996;23;20461;-86
2023/12/03 11:28:07;;;;;;;20.70;9.80;;;;;;;2.81;78.06;101856.00;6246942;22;20008;-87
2023/12/03 11:30:40;;;;;;;20.40;8.70;;;;;;;3.18;77.25;101885.16;6245070;23;20031;-87
2023/12/03 11:33:26;;;;;;;;;;;;;;;;;;;;;
2023/12/03 11:36:18;;;;;;;16.80;8.75;;;;;;;3.20;76.78;101818.22;6246806;23;20431;-86
2023/12/03 11:38:53;;;;;;;;;;;;;;;;;;;;;
2023/12/03 11:41:35;;;;;;;19.73;9.43;;;;;;;3.17;73.96;101820.69;6245213;23;20075;-86
2023/12/03 11:44:25;;;;;;;17.63;9.27;;;;;;;3.41;73.83;101836.81;6244888;23;20099;-86
2023/12/03 11:47:16;;;;;;;;;;;;;;;;;;;;;
2023/12/03 11:49:59;;;;;;;18.13;9.63;;;;;;;3.60;71.96;101807.38;6246485;23;20091;-86
2023/12/03 11:52:27;;;;;;;16.48;9.15;;;;;;;3.66;70.57;101802.47;6204708;23;20064;-86
2023/12/03 11:55:24;;;;;;;15.90;9.05;;;;;;;4.13;70.81;101911.31;6246199;22;20432;-86
2023/12/03 11:57:56;;;;;;;18.08;8.77;;;;;;;3.64;71.75;101804.09;6222933;23;20004;-86
2023/12/03 12:00:24;;;;;;;18.58;8.82;;;;;;;3.92;72.19;101827.38;6246575;22;20015;-86
2023/12/03 12:02:55;;;;;;;14.60;8.25;;;;;;;3.87;70.54;101793.97;6246033;22;20001;-86
2023/12/03 12:05:23;;;;;;;22.10;10.25;;;;;;;4.52;71.40;101880.22;6244783;23;20031;-86